sensor_id;sensor_type;location;lat;lon;timestamp;pressure;altitude;pressure_sealevel;temperature;humidity
6134;BME280;3098;42.678;23.364;2023-05-23T00:01:16;94851.84;;;11.14;100.00
6134;BME280;3098;42.678;23.364;2023-05-23T00:03:43;94867.16;;;11.25;100.00
6134;BME280;3098;42.678;23.364;2023-05-23T00:06:11;94764.72;;;10.64;100.00
6134;BME280;3098;42.678;23.364;2023-05-23T00:08:39;94869.50;;;11.27;100.00
6134;BME280;3098;42.678;23.364;2023-05-23T00:11:10;94826.69;;;10.94;100.00
6134;BME280;3098;42.678;23.364;2023-05-23T00:13:40;94877.44;;;11.27;100.00
6134;BME280;3098;42.678;23.364;2023-05-23T00:16:08;94854.97;;;11.07;100.00
6134;BME280;3098;42.678;23.364;2023-05-23T00:18:35;94792.19;;;10.68;100.00
6134;BME280;3098;42.678;23.364;2023-05-23T00:21:02;94841.53;;;10.86;100.00
6134;BME280;3098;42.678;23.364;2023-05-23T00:23:29;94869.78;;;11.00;100.00
6134;BME280;3098;42.678;23.364;2023-05-23T00:25:58;94847.91;;;10.77;100.00
6134;BME280;3098;42.678;23.364;2023-05-23T00:28:27;94872.75;;;10.89;100.00
6134;BME280;3098;42.678;23.364;2023-05-23T00:30:53;94825.38;;;10.49;100.00
6134;BME280;3098;42.678;23.364;2023-05-23T00:33:21;94871.94;;;10.80;100.00
6134;BME280;3098;42.678;23.364;2023-05-23T00:35:48;94765.56;;;10.17;100.00
6134;BME280;3098;42.678;23.364;2023-05-23T00:38:15;94869.91;;;10.69;100.00
6134;BME280;3098;42.678;23.364;2023-05-23T00:40:42;94865.25;;;10.83;100.00
6134;BME280;3098;42.678;23.364;2023-05-23T00:43:10;94832.91;;;10.64;100.00
6134;BME280;3098;42.678;23.364;2023-05-23T00:45:38;94816.03;;;10.60;100.00
6134;BME280;3098;42.678;23.364;2023-05-23T00:48:06;94791.25;;;10.56;100.00
6134;BME280;3098;42.678;23.364;2023-05-23T00:50:34;94843.25;;;10.91;100.00
6134;BME280;3098;42.678;23.364;2023-05-23T00:53:01;94832.16;;;10.80;100.00
6134;BME280;3098;42.678;23.364;2023-05-23T00:55:29;94880.22;;;10.87;100.00
6134;BME280;3098;42.678;23.364;2023-05-23T00:57:57;94848.06;;;10.80;100.00
6134;BME280;3098;42.678;23.364;2023-05-23T01:00:25;94867.59;;;11.02;100.00
6134;BME280;3098;42.678;23.364;2023-05-23T01:02:54;94848.06;;;10.80;100.00
6134;BME280;3098;42.678;23.364;2023-05-23T01:05:21;94828.06;;;10.66;100.00
6134;BME280;3098;42.678;23.364;2023-05-23T01:07:49;94870.41;;;10.96;100.00
6134;BME280;3098;42.678;23.364;2023-05-23T01:10:19;94853.56;;;10.84;100.00
6134;BME280;3098;42.678;23.364;2023-05-23T01:12:58;94868.72;;;11.01;100.00
6134;BME280;3098;42.678;23.364;2023-05-23T01:15:35;94823.72;;;10.70;100.00
6134;BME280;3098;42.678;23.364;2023-05-23T01:18:08;94839.94;;;10.77;100.00
6134;BME280;3098;42.678;23.364;2023-05-23T01:20:39;94797.91;;;10.53;100.00
6134;BME280;3098;42.678;23.364;2023-05-23T01:23:23;94867.13;;;10.91;100.00
6134;BME280;3098;42.678;23.364;2023-05-23T01:26:06;94873.84;;;10.88;100.00
6134;BME280;3098;42.678;23.364;2023-05-23T01:28:42;94875.41;;;10.89;100.00
6134;BME280;3098;42.678;23.364;2023-05-23T01:31:11;94853.06;;;10.82;100.00
6134;BME280;3098;42.678;23.364;2023-05-23T01:33:39;94848.38;;;10.87;100.00
6134;BME280;3098;42.678;23.364;2023-05-23T01:36:07;94876.06;;;11.04;100.00
6134;BME280;3098;42.678;23.364;2023-05-23T01:38:34;94862.00;;;11.03;100.00
6134;BME280;3098;42.678;23.364;2023-05-23T01:41:01;94863.22;;;10.97;100.00
6134;BME280;3098;42.678;23.364;2023-05-23T01:43:28;94867.31;;;11.03;100.00
6134;BME280;3098;42.678;23.364;2023-05-23T01:45:57;94839.97;;;10.85;100.00
6134;BME280;3098;42.678;23.364;2023-05-23T01:48:25;94859.63;;;11.02;100.00
6134;BME280;3098;42.678;23.364;2023-05-23T01:50:53;94860.75;;;10.92;100.00
6134;BME280;3098;42.678;23.364;2023-05-23T01:53:21;94858.88;;;10.92;100.00
6134;BME280;3098;42.678;23.364;2023-05-23T01:55:49;94865.88;;;10.88;100.00
6134;BME280;3098;42.678;23.364;2023-05-23T01:58:17;94857.56;;;10.81;100.00
6134;BME280;3098;42.678;23.364;2023-05-23T02:00:45;94842.09;;;10.58;100.00
6134;BME280;3098;42.678;23.364;2023-05-23T02:03:13;94848.97;;;10.67;100.00
6134;BME280;3098;42.678;23.364;2023-05-23T02:05:40;94868.53;;;10.88;100.00
6134;BME280;3098;42.678;23.364;2023-05-23T02:08:07;94842.78;;;10.80;100.00
6134;BME280;3098;42.678;23.364;2023-05-23T02:10:34;94850.75;;;10.89;100.00
6134;BME280;3098;42.678;23.364;2023-05-23T02:13:01;94808.88;;;10.60;100.00
6134;BME280;3098;42.678;23.364;2023-05-23T02:15:28;94853.56;;;10.84;100.00
6134;BME280;3098;42.678;23.364;2023-05-23T02:17:55;94844.78;;;10.75;100.00
6134;BME280;3098;42.678;23.364;2023-05-23T02:20:23;94739.59;;;9.97;100.00
6134;BME280;3098;42.678;23.364;2023-05-23T02:22:50;94847.72;;;10.73;100.00
6134;BME280;3098;42.678;23.364;2023-05-23T02:25:18;94685.91;;;9.74;100.00
6134;BME280;3098;42.678;23.364;2023-05-23T02:27:45;94809.94;;;10.59;100.00
6134;BME280;3098;42.678;23.364;2023-05-23T02:30:13;94863.69;;;10.90;100.00
6134;BME280;3098;42.678;23.364;2023-05-23T02:32:40;94867.59;;;10.93;100.00
6134;BME280;3098;42.678;23.364;2023-05-23T02:35:08;94846.03;;;10.77;100.00
6134;BME280;3098;42.678;23.364;2023-05-23T02:37:37;94813.72;;;10.58;100.00
6134;BME280;3098;42.678;23.364;2023-05-23T02:40:05;94859.00;;;10.96;100.00
6134;BME280;3098;42.678;23.364;2023-05-23T02:42:33;94859.78;;;10.88;100.00
6134;BME280;3098;42.678;23.364;2023-05-23T02:44:59;94861.50;;;10.75;100.00
6134;BME280;3098;42.678;23.364;2023-05-23T02:47:27;94797.88;;;10.36;100.00
6134;BME280;3098;42.678;23.364;2023-05-23T02:49:54;94856.81;;;10.81;100.00
6134;BME280;3098;42.678;23.364;2023-05-23T02:52:20;94835.25;;;10.65;100.00
6134;BME280;3098;42.678;23.364;2023-05-23T02:54:49;94760.19;;;10.08;100.00
6134;BME280;3098;42.678;23.364;2023-05-23T02:57:16;94862.25;;;10.76;100.00
6134;BME280;3098;42.678;23.364;2023-05-23T02:59:43;94855.22;;;10.63;100.00
6134;BME280;3098;42.678;23.364;2023-05-23T03:02:10;94863.50;;;10.61;100.00
6134;BME280;3098;42.678;23.364;2023-05-23T03:04:37;94853.59;;;10.53;100.00
6134;BME280;3098;42.678;23.364;2023-05-23T03:07:04;94856.59;;;10.52;100.00
6134;BME280;3098;42.678;23.364;2023-05-23T03:09:32;94847.03;;;10.42;100.00
6134;BME280;3098;42.678;23.364;2023-05-23T03:12:01;94791.56;;;9.75;100.00
6134;BME280;3098;42.678;23.364;2023-05-23T03:14:28;94779.53;;;9.69;100.00
6134;BME280;3098;42.678;23.364;2023-05-23T03:16:55;94835.50;;;10.07;100.00
6134;BME280;3098;42.678;23.364;2023-05-23T03:19:22;94525.63;;;8.10;100.00
6134;BME280;3098;42.678;23.364;2023-05-23T03:21:50;94827.19;;;10.31;100.00
6134;BME280;3098;42.678;23.364;2023-05-23T03:24:17;94823.22;;;10.59;100.00
6134;BME280;3098;42.678;23.364;2023-05-23T03:26:44;94820.13;;;10.83;100.00
6134;BME280;3098;42.678;23.364;2023-05-23T03:29:13;94831.69;;;11.30;100.00
6134;BME280;3098;42.678;23.364;2023-05-23T03:31:40;94850.25;;;11.64;100.00
6134;BME280;3098;42.678;23.364;2023-05-23T03:34:07;94821.69;;;11.70;100.00
6134;BME280;3098;42.678;23.364;2023-05-23T03:36:34;94850.88;;;12.33;100.00
6134;BME280;3098;42.678;23.364;2023-05-23T03:39:03;94846.91;;;12.77;100.00
6134;BME280;3098;42.678;23.364;2023-05-23T03:41:32;94841.22;;;12.87;100.00
6134;BME280;3098;42.678;23.364;2023-05-23T03:43:59;94769.06;;;12.80;100.00
6134;BME280;3098;42.678;23.364;2023-05-23T03:46:27;94826.19;;;13.65;100.00
6134;BME280;3098;42.678;23.364;2023-05-23T03:48:54;94811.44;;;13.68;100.00
6134;BME280;3098;42.678;23.364;2023-05-23T03:51:21;94794.16;;;13.20;100.00
6134;BME280;3098;42.678;23.364;2023-05-23T03:53:49;94789.13;;;12.78;100.00
6134;BME280;3098;42.678;23.364;2023-05-23T03:56:16;94789.28;;;11.85;100.00
6134;BME280;3098;42.678;23.364;2023-05-23T03:58:43;94825.44;;;11.77;100.00
6134;BME280;3098;42.678;23.364;2023-05-23T04:01:10;94821.97;;;11.68;100.00
6134;BME280;3098;42.678;23.364;2023-05-23T04:03:39;94768.94;;;11.25;100.00
6134;BME280;3098;42.678;23.364;2023-05-23T04:06:07;94829.63;;;11.78;100.00
6134;BME280;3098;42.678;23.364;2023-05-23T04:08:35;94652.94;;;11.09;100.00
6134;BME280;3098;42.678;23.364;2023-05-23T04:11:02;94818.34;;;13.15;100.00
6134;BME280;3098;42.678;23.364;2023-05-23T04:13:29;94786.50;;;14.42;100.00
6134;BME280;3098;42.678;23.364;2023-05-23T04:15:58;94768.34;;;15.67;100.00
6134;BME280;3098;42.678;23.364;2023-05-23T04:18:26;94797.44;;;15.68;100.00
6134;BME280;3098;42.678;23.364;2023-05-23T04:20:54;94805.72;;;15.63;100.00
6134;BME280;3098;42.678;23.364;2023-05-23T04:23:21;94805.03;;;15.26;100.00
6134;BME280;3098;42.678;23.364;2023-05-23T04:25:48;94810.13;;;14.79;100.00
6134;BME280;3098;42.678;23.364;2023-05-23T04:28:16;94796.88;;;13.98;100.00
6134;BME280;3098;42.678;23.364;2023-05-23T04:30:43;94750.63;;;13.37;100.00
6134;BME280;3098;42.678;23.364;2023-05-23T04:33:10;94822.94;;;13.27;100.00
6134;BME280;3098;42.678;23.364;2023-05-23T04:35:37;94819.28;;;12.90;100.00
6134;BME280;3098;42.678;23.364;2023-05-23T04:38:06;94763.91;;;12.34;100.00
6134;BME280;3098;42.678;23.364;2023-05-23T04:40:34;94759.34;;;12.05;100.00
6134;BME280;3098;42.678;23.364;2023-05-23T04:43:02;94820.41;;;12.31;100.00
6134;BME280;3098;42.678;23.364;2023-05-23T04:45:29;94821.31;;;12.35;100.00
6134;BME280;3098;42.678;23.364;2023-05-23T04:47:56;94796.50;;;12.22;100.00
6134;BME280;3098;42.678;23.364;2023-05-23T04:50:23;94825.06;;;12.34;100.00
6134;BME280;3098;42.678;23.364;2023-05-23T04:52:50;94831.84;;;12.52;100.00
6134;BME280;3098;42.678;23.364;2023-05-23T04:55:19;94829.59;;;12.71;100.00
6134;BME280;3098;42.678;23.364;2023-05-23T04:57:46;94780.97;;;12.33;100.00
6134;BME280;3098;42.678;23.364;2023-05-23T05:00:14;94835.91;;;12.87;100.00
6134;BME280;3098;42.678;23.364;2023-05-23T05:02:41;94835.13;;;12.87;100.00
6134;BME280;3098;42.678;23.364;2023-05-23T05:05:09;94794.63;;;12.52;100.00
6134;BME280;3098;42.678;23.364;2023-05-23T05:07:36;94744.31;;;12.09;100.00
6134;BME280;3098;42.678;23.364;2023-05-23T05:10:04;94828.75;;;12.79;100.00
6134;BME280;3098;42.678;23.364;2023-05-23T05:12:33;94708.28;;;11.91;100.00
6134;BME280;3098;42.678;23.364;2023-05-23T05:15:02;94778.09;;;12.38;100.00
6134;BME280;3098;42.678;23.364;2023-05-23T05:17:29;94854.88;;;12.77;100.00
6134;BME280;3098;42.678;23.364;2023-05-23T05:20:01;94816.81;;;12.56;100.00
6134;BME280;3098;42.678;23.364;2023-05-23T05:22:33;94813.19;;;12.60;100.00
6134;BME280;3098;42.678;23.364;2023-05-23T05:25:01;94857.38;;;12.82;100.00
6134;BME280;3098;42.678;23.364;2023-05-23T05:27:28;94855.16;;;12.84;100.00
6134;BME280;3098;42.678;23.364;2023-05-23T05:29:58;94848.81;;;12.77;100.00
6134;BME280;3098;42.678;23.364;2023-05-23T05:32:29;94852.25;;;12.98;100.00
6134;BME280;3098;42.678;23.364;2023-05-23T05:34:58;94856.19;;;12.71;100.00
6134;BME280;3098;42.678;23.364;2023-05-23T05:37:26;94828.47;;;12.72;100.00
6134;BME280;3098;42.678;23.364;2023-05-23T05:39:54;94865.06;;;12.46;100.00
6134;BME280;3098;42.678;23.364;2023-05-23T05:42:22;94872.50;;;12.61;100.00
6134;BME280;3098;42.678;23.364;2023-05-23T05:44:49;94816.41;;;12.45;100.00
6134;BME280;3098;42.678;23.364;2023-05-23T05:47:18;94739.38;;;11.99;100.00
6134;BME280;3098;42.678;23.364;2023-05-23T05:49:45;94806.28;;;12.68;100.00
6134;BME280;3098;42.678;23.364;2023-05-23T05:52:13;94792.69;;;12.61;100.00
6134;BME280;3098;42.678;23.364;2023-05-23T05:54:40;94838.53;;;13.37;100.00
6134;BME280;3098;42.678;23.364;2023-05-23T05:57:07;94859.72;;;13.87;100.00
6134;BME280;3098;42.678;23.364;2023-05-23T05:59:34;94790.16;;;13.80;100.00
6134;BME280;3098;42.678;23.364;2023-05-23T06:02:02;94820.06;;;14.43;100.00
6134;BME280;3098;42.678;23.364;2023-05-23T06:04:30;94849.97;;;14.60;100.00
6134;BME280;3098;42.678;23.364;2023-05-23T06:06:58;94847.50;;;14.79;100.00
6134;BME280;3098;42.678;23.364;2023-05-23T06:09:27;94691.31;;;13.85;100.00
6134;BME280;3098;42.678;23.364;2023-05-23T06:11:59;94850.25;;;15.19;100.00
6134;BME280;3098;42.678;23.364;2023-05-23T06:14:27;94834.47;;;14.90;100.00
6134;BME280;3098;42.678;23.364;2023-05-23T06:16:54;94853.09;;;15.38;100.00
6134;BME280;3098;42.678;23.364;2023-05-23T06:19:21;94769.94;;;15.00;100.00
6134;BME280;3098;42.678;23.364;2023-05-23T06:21:50;94852.84;;;15.04;100.00
6134;BME280;3098;42.678;23.364;2023-05-23T06:24:17;94759.84;;;14.81;100.00
6134;BME280;3098;42.678;23.364;2023-05-23T06:26:44;94852.47;;;15.29;100.00
6134;BME280;3098;42.678;23.364;2023-05-23T06:29:11;94853.72;;;15.60;100.00
6134;BME280;3098;42.678;23.364;2023-05-23T06:31:39;94837.56;;;16.12;100.00
6134;BME280;3098;42.678;23.364;2023-05-23T06:34:06;94848.56;;;15.94;100.00
6134;BME280;3098;42.678;23.364;2023-05-23T06:36:32;94820.34;;;15.97;100.00
6134;BME280;3098;42.678;23.364;2023-05-23T06:39:01;94757.09;;;15.89;100.00
6134;BME280;3098;42.678;23.364;2023-05-23T06:41:28;94791.00;;;14.77;100.00
6134;BME280;3098;42.678;23.364;2023-05-23T06:43:56;94848.94;;;16.24;100.00
6134;BME280;3098;42.678;23.364;2023-05-23T06:46:23;94818.50;;;17.10;100.00
6134;BME280;3098;42.678;23.364;2023-05-23T06:48:50;94771.66;;;17.43;100.00
6134;BME280;3098;42.678;23.364;2023-05-23T06:51:17;94809.91;;;18.20;100.00
6134;BME280;3098;42.678;23.364;2023-05-23T06:53:44;94845.00;;;18.08;100.00
6134;BME280;3098;42.678;23.364;2023-05-23T06:56:14;94842.00;;;19.60;95.55
6134;BME280;3098;42.678;23.364;2023-05-23T06:58:41;94833.22;;;18.58;95.53
6134;BME280;3098;42.678;23.364;2023-05-23T07:01:09;94836.59;;;20.67;87.56
6134;BME280;3098;42.678;23.364;2023-05-23T07:03:36;94830.72;;;20.54;83.03
6134;BME280;3098;42.678;23.364;2023-05-23T07:06:06;94827.72;;;21.89;71.88
6134;BME280;3098;42.678;23.364;2023-05-23T07:08:33;94770.50;;;20.87;74.29
6134;BME280;3098;42.678;23.364;2023-05-23T07:11:00;94811.31;;;20.38;77.71
6134;BME280;3098;42.678;23.364;2023-05-23T07:13:29;94822.34;;;21.17;75.83
6134;BME280;3098;42.678;23.364;2023-05-23T07:15:57;94833.47;;;20.24;82.59
6134;BME280;3098;42.678;23.364;2023-05-23T07:18:24;94771.44;;;19.73;82.59
6134;BME280;3098;42.678;23.364;2023-05-23T07:20:51;94717.72;;;19.17;83.84
6134;BME280;3098;42.678;23.364;2023-05-23T07:23:18;94765.09;;;20.29;80.88
6134;BME280;3098;42.678;23.364;2023-05-23T07:25:46;94800.97;;;20.40;77.65
6134;BME280;3098;42.678;23.364;2023-05-23T07:28:13;94815.38;;;21.92;71.45
6134;BME280;3098;42.678;23.364;2023-05-23T07:30:42;94764.16;;;22.59;67.45
6134;BME280;3098;42.678;23.364;2023-05-23T07:33:09;94801.19;;;23.11;61.76
6134;BME280;3098;42.678;23.364;2023-05-23T07:35:36;94802.97;;;23.74;58.75
6134;BME280;3098;42.678;23.364;2023-05-23T07:38:03;94781.25;;;23.88;59.92
6134;BME280;3098;42.678;23.364;2023-05-23T07:40:30;94798.94;;;25.17;53.47
6134;BME280;3098;42.678;23.364;2023-05-23T07:42:57;94758.19;;;24.80;53.02
6134;BME280;3098;42.678;23.364;2023-05-23T07:45:25;94793.44;;;25.92;49.63
6134;BME280;3098;42.678;23.364;2023-05-23T07:47:53;94788.72;;;23.56;55.45
6134;BME280;3098;42.678;23.364;2023-05-23T07:50:21;94755.59;;;23.06;59.90
6134;BME280;3098;42.678;23.364;2023-05-23T07:52:48;94769.16;;;24.03;56.26
6134;BME280;3098;42.678;23.364;2023-05-23T07:55:16;94731.13;;;23.49;58.04
6134;BME280;3098;42.678;23.364;2023-05-23T07:57:43;94757.38;;;23.62;55.94
6134;BME280;3098;42.678;23.364;2023-05-23T08:00:12;94799.59;;;23.53;55.74
6134;BME280;3098;42.678;23.364;2023-05-23T08:02:39;94803.44;;;23.55;59.06
6134;BME280;3098;42.678;23.364;2023-05-23T08:05:08;94789.47;;;24.91;53.00
6134;BME280;3098;42.678;23.364;2023-05-23T08:07:36;94785.13;;;25.72;50.38
6134;BME280;3098;42.678;23.364;2023-05-23T08:10:03;94669.91;;;24.72;51.86
6134;BME280;3098;42.678;23.364;2023-05-23T08:12:30;94684.88;;;23.91;53.90
6134;BME280;3098;42.678;23.364;2023-05-23T08:14:58;94761.06;;;26.31;49.76
6134;BME280;3098;42.678;23.364;2023-05-23T08:17:25;94737.78;;;25.05;50.83
6134;BME280;3098;42.678;23.364;2023-05-23T08:19:53;94738.13;;;25.45;51.69
6134;BME280;3098;42.678;23.364;2023-05-23T08:22:21;94766.44;;;22.85;59.84
6134;BME280;3098;42.678;23.364;2023-05-23T08:24:48;94790.81;;;24.11;59.56
6134;BME280;3098;42.678;23.364;2023-05-23T08:27:16;94730.91;;;23.91;57.21
6134;BME280;3098;42.678;23.364;2023-05-23T08:29:43;94785.75;;;22.52;65.38
6134;BME280;3098;42.678;23.364;2023-05-23T08:32:10;94780.66;;;23.35;62.86
6134;BME280;3098;42.678;23.364;2023-05-23T08:34:38;94618.19;;;22.52;61.64
6134;BME280;3098;42.678;23.364;2023-05-23T08:37:06;94780.28;;;23.19;63.41
6134;BME280;3098;42.678;23.364;2023-05-23T08:39:34;94773.53;;;24.97;60.22
6134;BME280;3098;42.678;23.364;2023-05-23T08:42:02;94741.13;;;26.64;51.85
6134;BME280;3098;42.678;23.364;2023-05-23T08:44:29;94788.78;;;27.42;47.05
6134;BME280;3098;42.678;23.364;2023-05-23T08:46:57;94772.16;;;26.44;49.72
6134;BME280;3098;42.678;23.364;2023-05-23T08:49:29;94779.88;;;24.80;51.85
6134;BME280;3098;42.678;23.364;2023-05-23T08:52:00;94772.63;;;25.44;52.96
6134;BME280;3098;42.678;23.364;2023-05-23T08:54:29;94774.28;;;25.35;52.72
6134;BME280;3098;42.678;23.364;2023-05-23T08:56:58;94766.78;;;25.46;52.16
6134;BME280;3098;42.678;23.364;2023-05-23T08:59:26;94748.75;;;25.96;50.97
6134;BME280;3098;42.678;23.364;2023-05-23T09:01:55;94755.72;;;25.30;52.83
6134;BME280;3098;42.678;23.364;2023-05-23T09:04:22;94770.31;;;24.06;57.13
6134;BME280;3098;42.678;23.364;2023-05-23T09:06:50;94729.22;;;25.41;53.79
6134;BME280;3098;42.678;23.364;2023-05-23T09:09:18;94768.19;;;25.91;49.88
6134;BME280;3098;42.678;23.364;2023-05-23T09:11:45;94685.78;;;24.29;53.10
6134;BME280;3098;42.678;23.364;2023-05-23T09:14:14;94759.50;;;25.05;53.35
6134;BME280;3098;42.678;23.364;2023-05-23T09:16:45;94674.84;;;25.78;49.01
6134;BME280;3098;42.678;23.364;2023-05-23T09:19:13;94751.03;;;26.28;48.51
6134;BME280;3098;42.678;23.364;2023-05-23T09:21:47;94729.97;;;26.05;47.48
6134;BME280;3098;42.678;23.364;2023-05-23T09:24:15;94730.03;;;26.78;47.27
6134;BME280;3098;42.678;23.364;2023-05-23T09:26:45;94747.81;;;27.06;43.15
6134;BME280;3098;42.678;23.364;2023-05-23T09:29:19;94753.91;;;27.73;42.50
6134;BME280;3098;42.678;23.364;2023-05-23T09:31:47;94692.03;;;26.25;41.64
6134;BME280;3098;42.678;23.364;2023-05-23T09:34:14;94743.25;;;27.43;40.05
6134;BME280;3098;42.678;23.364;2023-05-23T09:36:41;94699.91;;;27.09;38.83
6134;BME280;3098;42.678;23.364;2023-05-23T09:39:10;94646.25;;;25.97;40.86
6134;BME280;3098;42.678;23.364;2023-05-23T09:41:38;94724.16;;;27.62;35.85
6134;BME280;3098;42.678;23.364;2023-05-23T09:44:07;94692.22;;;26.84;36.30
6134;BME280;3098;42.678;23.364;2023-05-23T09:46:36;94685.09;;;25.67;36.84
6134;BME280;3098;42.678;23.364;2023-05-23T09:49:14;94670.75;;;25.93;37.22
6134;BME280;3098;42.678;23.364;2023-05-23T09:51:43;94733.03;;;26.34;38.18
6134;BME280;3098;42.678;23.364;2023-05-23T09:54:11;94635.50;;;26.59;36.71
6134;BME280;3098;42.678;23.364;2023-05-23T09:56:39;94722.34;;;26.23;36.93
6134;BME280;3098;42.678;23.364;2023-05-23T09:59:11;94706.81;;;25.67;38.12
6134;BME280;3098;42.678;23.364;2023-05-23T10:01:43;94726.00;;;26.87;37.67
6134;BME280;3098;42.678;23.364;2023-05-23T10:04:13;94668.00;;;27.84;34.90
6134;BME280;3098;42.678;23.364;2023-05-23T10:06:49;94716.41;;;28.16;33.86
6134;BME280;3098;42.678;23.364;2023-05-23T10:09:20;94686.38;;;28.00;34.08
6134;BME280;3098;42.678;23.364;2023-05-23T10:15:12;94713.19;;;25.57;35.74
6134;BME280;3098;42.678;23.364;2023-05-23T10:18:04;94719.88;;;26.33;34.21
6134;BME280;3098;42.678;23.364;2023-05-23T10:20:32;94713.06;;;27.53;33.88
6134;BME280;3098;42.678;23.364;2023-05-23T10:23:02;94639.25;;;27.28;34.52
6134;BME280;3098;42.678;23.364;2023-05-23T10:25:31;94614.94;;;27.37;34.52
6134;BME280;3098;42.678;23.364;2023-05-23T10:28:00;94605.16;;;26.18;34.88
6134;BME280;3098;42.678;23.364;2023-05-23T10:30:28;94629.28;;;25.62;35.71
6134;BME280;3098;42.678;23.364;2023-05-23T10:32:56;94674.25;;;26.44;33.99
6134;BME280;3098;42.678;23.364;2023-05-23T10:35:35;94669.72;;;27.43;32.91
6134;BME280;3098;42.678;23.364;2023-05-23T10:38:10;94623.69;;;28.16;30.87
6134;BME280;3098;42.678;23.364;2023-05-23T10:40:47;94670.94;;;27.93;32.68
6134;BME280;3098;42.678;23.364;2023-05-23T10:43:22;94679.69;;;27.49;33.02
6134;BME280;3098;42.678;23.364;2023-05-23T10:45:51;94692.13;;;28.38;31.70
6134;BME280;3098;42.678;23.364;2023-05-23T10:48:31;94717.19;;;29.26;29.76
6134;BME280;3098;42.678;23.364;2023-05-23T10:51:06;94672.41;;;24.52;35.58
6134;BME280;3098;42.678;23.364;2023-05-23T10:53:35;94680.94;;;23.99;36.76
6134;BME280;3098;42.678;23.364;2023-05-23T10:56:04;94641.06;;;25.22;34.94
6134;BME280;3098;42.678;23.364;2023-05-23T10:58:33;94643.28;;;25.88;34.14
6134;BME280;3098;42.678;23.364;2023-05-23T11:01:04;94639.31;;;25.92;33.45
6134;BME280;3098;42.678;23.364;2023-05-23T11:03:35;94687.22;;;25.52;33.58
6134;BME280;3098;42.678;23.364;2023-05-23T11:06:07;94682.38;;;26.20;32.94
6134;BME280;3098;42.678;23.364;2023-05-23T11:09:01;94678.75;;;23.83;35.50
6134;BME280;3098;42.678;23.364;2023-05-23T11:11:59;94675.44;;;24.13;36.22
6134;BME280;3098;42.678;23.364;2023-05-23T11:14:42;94641.72;;;25.60;32.98
6134;BME280;3098;42.678;23.364;2023-05-23T11:17:29;94675.28;;;25.12;34.86
6134;BME280;3098;42.678;23.364;2023-05-23T11:19:58;94676.75;;;26.08;33.56
6134;BME280;3098;42.678;23.364;2023-05-23T11:22:28;94621.31;;;24.88;34.62
6134;BME280;3098;42.678;23.364;2023-05-23T11:24:56;94660.66;;;25.94;34.02
6134;BME280;3098;42.678;23.364;2023-05-23T11:27:32;94660.44;;;26.54;32.73
6134;BME280;3098;42.678;23.364;2023-05-23T11:30:02;94659.97;;;27.22;32.59
6134;BME280;3098;42.678;23.364;2023-05-23T11:32:30;94663.28;;;25.10;35.21
6134;BME280;3098;42.678;23.364;2023-05-23T11:35:01;94660.88;;;25.46;35.20
6134;BME280;3098;42.678;23.364;2023-05-23T11:37:31;94592.63;;;24.49;34.99
6134;BME280;3098;42.678;23.364;2023-05-23T11:39:59;94652.03;;;24.74;34.77
6134;BME280;3098;42.678;23.364;2023-05-23T11:42:46;94552.56;;;23.31;36.49
6134;BME280;3098;42.678;23.364;2023-05-23T11:45:13;94646.31;;;22.93;37.75
6134;BME280;3098;42.678;23.364;2023-05-23T11:47:40;94597.44;;;22.13;38.17
6134;BME280;3098;42.678;23.364;2023-05-23T11:50:08;94613.59;;;22.34;37.80
6134;BME280;3098;42.678;23.364;2023-05-23T11:52:37;94635.19;;;22.56;38.34
6134;BME280;3098;42.678;23.364;2023-05-23T11:55:06;94621.63;;;22.80;38.63
6134;BME280;3098;42.678;23.364;2023-05-23T11:57:37;94638.50;;;23.06;38.75
6134;BME280;3098;42.678;23.364;2023-05-23T12:00:06;94639.22;;;23.24;37.64
6134;BME280;3098;42.678;23.364;2023-05-23T12:02:37;94580.31;;;22.73;38.46
6134;BME280;3098;42.678;23.364;2023-05-23T12:05:07;94594.38;;;21.94;38.85
6134;BME280;3098;42.678;23.364;2023-05-23T12:07:34;94590.84;;;22.21;38.19
6134;BME280;3098;42.678;23.364;2023-05-23T12:10:04;94620.88;;;22.55;38.86
6134;BME280;3098;42.678;23.364;2023-05-23T12:12:39;94618.13;;;22.87;38.15
6134;BME280;3098;42.678;23.364;2023-05-23T12:15:08;94619.97;;;23.04;37.40
6134;BME280;3098;42.678;23.364;2023-05-23T12:17:35;94598.47;;;22.65;39.21
6134;BME280;3098;42.678;23.364;2023-05-23T12:20:04;94567.47;;;22.91;38.53
6134;BME280;3098;42.678;23.364;2023-05-23T12:22:31;94588.31;;;22.94;37.34
6134;BME280;3098;42.678;23.364;2023-05-23T12:24:58;94616.44;;;23.18;37.32
6134;BME280;3098;42.678;23.364;2023-05-23T12:27:28;94605.16;;;23.30;38.41
6134;BME280;3098;42.678;23.364;2023-05-23T12:30:06;94608.25;;;23.28;37.75
6134;BME280;3098;42.678;23.364;2023-05-23T12:32:37;94503.09;;;22.58;37.52
6134;BME280;3098;42.678;23.364;2023-05-23T12:35:05;94604.34;;;23.36;37.17
6134;BME280;3098;42.678;23.364;2023-05-23T12:37:33;94510.25;;;23.00;36.23
6134;BME280;3098;42.678;23.364;2023-05-23T12:40:09;94599.16;;;23.67;35.98
6134;BME280;3098;42.678;23.364;2023-05-23T12:42:53;94601.03;;;23.73;36.31
6134;BME280;3098;42.678;23.364;2023-05-23T12:45:21;94502.16;;;21.92;33.53
6134;BME280;3098;42.678;23.364;2023-05-23T12:47:49;94489.28;;;22.42;32.85
6134;BME280;3098;42.678;23.364;2023-05-23T12:50:16;94532.72;;;22.93;32.15
6134;BME280;3098;42.678;23.364;2023-05-23T12:52:43;94594.34;;;23.26;32.30
6134;BME280;3098;42.678;23.364;2023-05-23T12:55:12;94542.03;;;22.81;32.57
6134;BME280;3098;42.678;23.364;2023-05-23T12:57:39;94579.63;;;23.38;32.81
6134;BME280;3098;42.678;23.364;2023-05-23T13:00:09;94579.72;;;23.17;32.77
6134;BME280;3098;42.678;23.364;2023-05-23T13:02:36;94558.13;;;23.06;33.21
6134;BME280;3098;42.678;23.364;2023-05-23T13:05:04;94484.19;;;22.58;32.16
6134;BME280;3098;42.678;23.364;2023-05-23T13:07:31;94545.56;;;22.71;32.07
6134;BME280;3098;42.678;23.364;2023-05-23T13:09:58;94576.13;;;23.34;31.63
6134;BME280;3098;42.678;23.364;2023-05-23T13:12:25;94545.59;;;23.40;30.63
6134;BME280;3098;42.678;23.364;2023-05-23T13:14:52;94576.97;;;23.82;32.28
6134;BME280;3098;42.678;23.364;2023-05-23T13:17:20;94547.94;;;23.38;30.85